Time;durP1;ratioP1;P1;durP2;ratioP2;P2;SDS_P1;SDS_P2;PMS_P1;PMS_P2;Temp;Humidity;BMP_temperature;BMP_pressure;BME280_temperature;BME280_humidity;BME280_pressure;Samples;Min_cycle;Max_cycle;Signal;HPM_P1;HPM_P2
2022/08/05 00:00:55;;;;;;;6.63;1.80;;;;;;;28.13;43.37;99704.72;10474286;28;20055;-74
2022/08/05 00:06:17;;;;;;;5.78;2.58;;;;;;;28.12;43.82;99722.22;10479106;28;20454;-75
2022/08/05 00:11:33;;;;;;;3.03;1.83;;;;;;;28.10;43.63;99770.88;10477287;28;20052;-75
2022/08/05 00:16:48;;;;;;;3.47;2.08;;;;;;;27.96;44.02;99821.53;10486771;28;20880;-73
2022/08/05 00:21:54;;;;;;;9.27;2.67;;;;;;;27.72;45.48;99840.00;10485570;28;20117;-75
2022/08/05 00:26:55;;;;;;;8.93;2.42;;;;;;;27.43;46.69;99820.88;10485336;28;20046;-74
2022/08/05 00:31:59;;;;;;;6.85;2.63;;;;;;;27.35;47.17;99813.91;10480676;28;20553;-75
2022/08/05 00:37:15;;;;;;;3.85;2.55;;;;;;;27.27;48.19;99850.63;10468108;28;20656;-76
2022/08/05 00:42:32;;;;;;;4.53;2.85;;;;;;;27.09;49.29;99859.00;10461633;28;20051;-76
2022/08/05 00:47:34;;;;;;;6.43;2.92;;;;;;;27.01;49.74;99868.44;10478096;28;20127;-76
2022/08/05 00:52:55;;;;;;;7.50;2.80;;;;;;;26.98;50.11;99852.53;10476946;28;20067;-73
2022/08/05 00:57:56;;;;;;;5.07;2.90;;;;;;;26.90;50.57;99856.47;10473322;28;20079;-74
2022/08/05 01:02:59;;;;;;;;;;;;;;;26.83;51.76;99844.00;10475147;28;20055;-74
2022/08/05 01:08:01;;;;;;;7.60;2.35;;;;;;;26.87;51.08;99823.34;10468814;28;19930;-72
2022/08/05 01:13:29;;;;;;;3.05;2.65;;;;;;;26.90;50.63;99806.47;10478111;28;20052;-76
2022/08/05 01:18:53;;;;;;;4.55;2.17;;;;;;;26.91;50.00;99731.69;10471422;28;20057;-73
2022/08/05 01:24:15;;;;;;;5.38;2.33;;;;;;;26.99;50.98;99737.59;10468969;28;20595;-75
2022/08/05 01:29:43;;;;;;;5.40;2.00;;;;;;;26.97;50.46;99763.47;10470207;28;20063;-74
2022/08/05 01:34:54;;;;;;;6.80;1.77;;;;;;;26.85;50.30;99743.59;10471995;28;20045;-76
2022/08/05 01:39:57;;;;;;;6.90;1.92;;;;;;;26.75;50.36;99723.19;10451234;28;20040;-75
2022/08/05 01:45:00;;;;;;;4.25;2.05;;;;;;;26.71;50.88;99730.22;10472290;28;20042;-75
2022/08/05 01:50:06;;;;;;;3.63;1.92;;;;;;;26.70;51.32;99719.53;10457951;28;20876;-74
2022/08/05 01:55:19;;;;;;;3.73;2.50;;;;;;;26.61;50.36;99724.50;10474693;28;20040;-76
2022/08/05 02:00:21;;;;;;;2.63;1.88;;;;;;;26.54;51.79;99721.09;10460419;28;20071;-74
2022/08/05 02:05:35;;;;;;;3.55;2.20;;;;;;;26.55;51.81;99729.03;10471417;28;20138;-75
2022/08/05 02:10:50;;;;;;;4.57;2.13;;;;;;;26.60;52.18;99704.59;10472685;28;20056;-75
2022/08/05 02:16:00;;;;;;;4.30;2.38;;;;;;;26.55;52.70;99673.63;10462093;28;20055;-75
2022/08/05 02:21:11;;;;;;;5.47;1.98;;;;;;;26.34;53.28;99666.94;10459819;28;20033;-75
2022/08/05 02:26:22;;;;;;;5.07;2.20;;;;;;;26.21;54.29;99651.66;10465726;28;20044;-74
2022/08/05 02:31:29;;;;;;;3.53;2.13;;;;;;;26.09;55.70;99676.25;10455110;28;20040;-73
2022/08/05 02:36:44;;;;;;;3.90;2.55;;;;;;;25.98;55.60;99702.44;10465733;28;20037;-75
2022/08/05 02:41:48;;;;;;;6.97;2.30;;;;;;;25.72;56.08;99780.88;10472271;28;20051;-75
2022/08/05 02:47:04;;;;;;;4.32;2.40;;;;;;;25.77;57.11;99804.72;10450296;28;20673;-74
2022/08/05 02:52:09;;;;;;;6.97;2.22;;;;;;;25.71;61.73;99786.56;10447338;28;20046;-73
2022/08/05 02:57:16;;;;;;;4.85;2.65;;;;;;;25.52;62.37;99813.06;10468066;28;20059;-76
2022/08/05 03:02:39;;;;;;;7.78;2.90;;;;;;;25.37;64.68;99813.50;10465852;28;20051;-74
2022/08/05 03:07:44;;;;;;;7.40;2.85;;;;;;;25.29;62.96;99830.97;10466583;28;20198;-75
2022/08/05 03:13:16;;;;;;;4.55;2.33;;;;;;;25.08;60.59;99823.31;10463776;28;20071;-74
2022/08/05 03:18:18;;;;;;;3.00;2.33;;;;;;;25.08;65.22;99815.13;10455409;28;20072;-75
2022/08/05 03:23:31;;;;;;;3.00;2.50;;;;;;;25.13;65.89;99821.56;10460703;28;20115;-76
2022/08/05 03:28:35;;;;;;;3.90;2.97;;;;;;;24.95;67.04;99827.88;10470212;28;20044;-73
2022/08/05 03:33:39;;;;;;;8.13;3.40;;;;;;;24.92;69.46;99806.56;10453120;28;20723;-73
2022/08/05 03:38:53;;;;;;;4.97;2.70;;;;;;;24.89;67.41;99796.09;10469707;28;20051;-73
2022/08/05 03:43:55;;;;;;;4.82;2.25;;;;;;;24.59;68.24;99820.53;10464455;28;20055;-73
2022/08/05 03:49:11;;;;;;;4.43;2.92;;;;;;;24.46;70.90;99886.78;10478038;28;20105;-74
2022/08/05 03:54:20;;;;;;;5.07;3.65;;;;;;;24.43;73.12;99919.88;10474203;28;20044;-74
2022/08/05 03:59:46;;;;;;;7.55;3.83;;;;;;;24.10;75.94;99948.16;10463800;28;20051;-74
2022/08/05 04:05:01;;;;;;;8.57;4.15;;;;;;;24.14;75.33;99957.50;10466991;28;21390;-74
2022/08/05 04:10:02;;;;;;;8.65;3.83;;;;;;;24.16;75.72;99942.66;10477688;28;20130;-75
2022/08/05 04:15:05;;;;;;;5.15;3.47;;;;;;;24.17;75.42;99935.34;10482093;28;20334;-74
2022/08/05 04:20:17;;;;;;;3.78;2.90;;;;;;;24.12;74.91;99925.09;10462860;28;20411;-74
2022/08/05 04:25:20;;;;;;;4.50;3.05;;;;;;;24.19;72.58;99892.44;10478741;28;20142;-74
2022/08/05 04:30:41;;;;;;;4.50;3.28;;;;;;;24.25;74.79;99883.41;10471819;28;20055;-75
2022/08/05 04:35:43;;;;;;;7.03;3.90;;;;;;;24.20;74.85;99890.56;10455570;28;20052;-74
2022/08/05 04:41:04;;;;;;;6.65;3.53;;;;;;;24.02;76.53;99875.00;10473587;28;20056;-75
2022/08/05 04:46:07;;;;;;;4.43;4.03;;;;;;;24.06;76.29;99870.81;10459792;28;20057;-74
2022/08/05 04:51:11;;;;;;;5.50;3.63;;;;;;;24.07;76.29;99877.91;10447549;28;20040;-76
2022/08/05 04:56:13;;;;;;;6.05;4.07;;;;;;;24.09;76.21;99879.34;10453060;28;20486;-73
2022/08/05 05:01:35;;;;;;;4.53;4.13;;;;;;;23.85;79.25;99900.00;10450512;28;20067;-74
2022/08/05 05:06:56;;;;;;;5.57;4.30;;;;;;;24.00;78.46;99911.41;10458112;28;20563;-74
2022/08/05 05:11:58;;;;;;;5.85;4.18;;;;;;;24.21;77.40;99916.69;10441456;28;20053;-74
2022/08/05 05:17:03;;;;;;;4.85;4.35;;;;;;;24.29;74.96;99939.00;10450143;28;20500;-73
2022/08/05 05:22:12;;;;;;;5.63;4.20;;;;;;;24.29;76.06;99963.50;10447733;28;20125;-75
2022/08/05 05:27:28;;;;;;;8.75;5.03;;;;;;;24.41;74.60;99985.38;10444677;28;20159;-73
2022/08/05 05:32:46;;;;;;;5.88;4.90;;;;;;;24.47;77.29;99983.63;10447703;28;20052;-74
2022/08/05 05:37:51;;;;;;;6.38;4.78;;;;;;;24.59;75.55;99962.00;10450521;28;20348;-75
2022/08/05 05:43:01;;;;;;;7.75;6.28;;;;;;;24.59;73.79;99989.22;10440325;28;20731;-75
2022/08/05 05:48:06;;;;;;;7.03;5.80;;;;;;;24.61;74.46;99949.03;10450838;28;20448;-76
2022/08/05 05:53:10;;;;;;;7.90;7.13;;;;;;;24.59;73.36;99957.41;10435352;28;20315;-73
2022/08/05 05:58:23;;;;;;;10.07;6.38;;;;;;;24.73;73.35;99970.91;10451504;28;20036;-72
2022/08/05 06:03:32;;;;;;;7.65;5.95;;;;;;;24.88;71.38;99971.38;10444812;28;20064;-72
2022/08/05 06:08:54;;;;;;;6.57;5.90;;;;;;;24.85;70.77;100009.94;10442345;28;20052;-75
2022/08/05 06:13:55;;;;;;;5.80;5.18;;;;;;;24.87;70.72;99953.38;10458142;28;20055;-74
2022/08/05 06:18:57;;;;;;;8.25;5.35;;;;;;;25.06;70.47;99944.16;10443904;28;20502;-73
2022/08/05 06:24:02;;;;;;;6.20;5.60;;;;;;;25.37;67.79;99958.72;10452953;28;20044;-74
2022/08/05 06:29:03;;;;;;;6.43;4.85;;;;;;;25.23;67.33;99919.03;10451280;28;20058;-73
2022/08/05 06:34:25;;;;;;;6.32;4.60;;;;;;;25.32;67.39;99934.03;10453960;28;20056;-73
2022/08/05 06:39:27;;;;;;;;;;;;;;;25.52;67.37;99922.06;10458947;28;20055;-75
2022/08/05 06:44:31;;;;;;;15.02;7.20;;;;;;;25.70;67.72;99919.31;10456122;28;19930;-75
2022/08/05 06:49:32;;;;;;;5.32;4.82;;;;;;;25.71;67.01;99910.03;10448666;28;20055;-75
2022/08/05 06:54:54;;;;;;;4.63;3.80;;;;;;;25.59;65.81;99922.81;10458818;28;20059;-76
2022/08/05 06:59:55;;;;;;;4.18;3.75;;;;;;;25.51;65.30;99893.97;10460294;28;20129;-75
2022/08/05 07:04:58;;;;;;;5.82;5.13;;;;;;;25.50;69.42;99866.97;10442116;28;20718;-74
2022/08/05 07:10:00;;;;;;;6.32;5.70;;;;;;;25.26;68.88;99921.31;10458618;28;20048;-75
2022/08/05 07:20:44;;;;;;;6.15;5.50;;;;;;;25.00;69.31;100006.88;10458030;28;20615;-74
2022/08/05 07:25:45;;;;;;;6.75;4.88;;;;;;;25.06;68.62;100017.69;10465392;28;20047;-75
2022/08/05 07:30:56;;;;;;;8.73;6.15;;;;;;;24.97;70.85;100035.38;10459171;28;20795;-75
2022/08/05 07:35:58;;;;;;;6.13;5.55;;;;;;;24.98;71.55;100055.25;10462048;28;20521;-73
2022/08/05 07:41:21;;;;;;;9.23;6.25;;;;;;;25.09;71.09;100053.69;10461601;28;20056;-72
2022/08/05 07:46:42;;;;;;;7.53;6.50;;;;;;;24.95;72.86;100025.75;10447154;28;20498;-75
2022/08/05 07:51:48;;;;;;;9.70;6.43;;;;;;;25.13;72.09;100017.63;10464119;28;20068;-74
2022/08/05 07:56:55;;;;;;;6.55;5.32;;;;;;;25.28;70.44;100024.56;10459524;28;20058;-75
2022/08/05 08:02:15;;;;;;;8.30;5.15;;;;;;;25.05;69.95;100032.34;10442382;28;20104;-75
2022/08/05 08:07:19;;;;;;;5.63;4.22;;;;;;;25.11;69.73;100037.97;10440882;28;20060;-75
2022/08/05 08:12:24;;;;;;;7.95;4.43;;;;;;;24.86;68.97;100047.81;10439584;28;20184;-76
2022/08/05 08:17:39;;;;;;;5.28;3.33;;;;;;;24.84;70.22;100040.94;10441923;28;20083;-75
2022/08/05 08:22:55;;;;;;;3.20;2.90;;;;;;;24.89;66.71;100035.63;10456374;28;20105;-74
2022/08/05 08:27:58;;;;;;;5.55;2.78;;;;;;;25.00;66.38;100034.09;10443079;28;20056;-75
2022/08/05 08:33:00;;;;;;;3.92;3.13;;;;;;;25.12;65.89;100021.41;10450405;28;20384;-75
2022/08/05 08:38:08;;;;;;;4.07;2.97;;;;;;;25.24;65.16;100024.22;10445142;28;20052;-73
2022/08/05 08:43:18;;;;;;;3.35;2.55;;;;;;;25.15;65.01;100028.28;10443388;28;20177;-76
2022/08/05 08:48:44;;;;;;;3.25;2.67;;;;;;;25.36;65.01;100025.16;10443685;28;20529;-76
2022/08/05 08:54:05;;;;;;;2.70;2.50;;;;;;;25.81;62.19;100023.16;10454650;28;20044;-76
2022/08/05 08:59:07;;;;;;;5.10;2.70;;;;;;;26.00;59.12;100034.88;10462263;28;20079;-74
2022/08/05 09:04:20;;;;;;;3.72;2.03;;;;;;;26.14;59.13;100033.66;10457744;28;20134;-75
2022/08/05 09:09:31;;;;;;;2.85;2.45;;;;;;;26.34;57.15;100035.25;10464970;28;20052;-74
2022/08/05 09:14:37;;;;;;;2.92;2.05;;;;;;;25.98;56.87;100018.72;10443342;28;20540;-73
2022/08/05 09:19:59;;;;;;;3.40;2.35;;;;;;;25.95;58.99;100013.72;10462666;28;20503;-73
2022/08/05 09:25:06;;;;;;;3.10;2.78;;;;;;;25.92;58.50;100011.47;10447967;28;20054;-76
2022/08/05 09:30:24;;;;;;;3.53;2.72;;;;;;;25.90;58.78;100014.44;10453950;28;20048;-76
2022/08/05 09:35:25;;;;;;;3.10;2.70;;;;;;;25.85;59.47;100000.66;10444706;28;20056;-75
2022/08/05 09:40:41;;;;;;;3.45;2.40;;;;;;;26.21;59.00;99981.72;10438955;28;20133;-76
2022/08/05 09:45:53;;;;;;;2.72;2.53;;;;;;;26.33;58.55;99993.47;10445960;28;20122;-77
2022/08/05 09:51:10;;;;;;;3.42;2.95;;;;;;;26.55;58.16;100018.31;10439525;28;20669;-74
2022/08/05 09:56:32;;;;;;;2.70;2.47;;;;;;;26.32;58.41;100013.66;10421238;28;20052;-75
2022/08/05 10:01:37;;;;;;;3.20;2.58;;;;;;;26.27;56.87;100018.97;10462049;28;20564;-75
2022/08/05 10:06:55;;;;;;;5.82;2.05;;;;;;;26.42;55.81;100008.47;10465610;28;20953;-73
2022/08/05 10:12:08;;;;;;;2.92;2.00;;;;;;;26.38;55.07;100012.72;10477317;28;20058;-76
2022/08/05 10:17:29;;;;;;;2.28;2.10;;;;;;;26.43;54.67;100017.47;10457519;28;20075;-75
2022/08/05 10:22:42;;;;;;;3.15;2.03;;;;;;;26.52;54.15;100001.59;10458411;28;20457;-75
2022/08/05 10:27:52;;;;;;;3.05;2.20;;;;;;;26.91;54.04;100026.59;10459356;28;20249;-75
2022/08/05 10:33:14;;;;;;;2.28;2.03;;;;;;;27.49;51.36;100014.78;10444395;28;20048;-74
2022/08/05 10:38:22;;;;;;;2.33;2.07;;;;;;;27.98;51.59;100019.06;10440960;28;20400;-74
2022/08/05 10:43:40;;;;;;;1.88;1.77;;;;;;;27.78;50.38;100033.97;10452535;28;20896;-75
2022/08/05 10:48:46;;;;;;;3.67;2.03;;;;;;;27.45;49.15;100032.75;10443542;28;20198;-75
2022/08/05 10:54:01;;;;;;;2.33;2.13;;;;;;;27.47;49.61;100029.75;10453922;28;20063;-75
2022/08/05 10:59:30;;;;;;;2.10;1.90;;;;;;;27.93;48.60;100038.09;10450986;28;20117;-75
2022/08/05 11:04:54;;;;;;;2.60;1.70;;;;;;;28.48;47.56;100050.31;10410445;28;20047;-74
2022/08/05 11:09:56;;;;;;;2.67;2.47;;;;;;;28.74;47.97;100037.94;10414179;28;20056;-75
2022/08/05 11:15:20;;;;;;;2.38;2.17;;;;;;;28.67;46.67;100048.22;10433976;28;20048;-75
2022/08/05 11:20:44;;;;;;;3.38;2.00;;;;;;;28.34;46.84;100058.03;10452481;28;20793;-72
2022/08/05 11:26:09;;;;;;;4.10;2.05;;;;;;;28.45;46.23;100070.81;10437057;28;20727;-74
2022/08/05 11:31:10;;;;;;;3.10;2.00;;;;;;;27.91;48.74;100067.56;10452535;28;20044;-74
2022/08/05 11:36:38;;;;;;;1.98;1.65;;;;;;;28.00;49.45;100083.41;10452340;28;20578;-76
2022/08/05 11:41:50;;;;;;;2.38;2.17;;;;;;;27.84;49.17;100075.91;10449889;28;20446;-75
2022/08/05 11:47:05;;;;;;;2.42;2.22;;;;;;;28.10;50.12;100079.19;10453047;28;20036;-75
2022/08/05 11:52:25;;;;;;;3.17;2.10;;;;;;;28.87;47.49;100064.13;10465511;28;20143;-76
2022/08/05 11:57:30;;;;;;;2.70;2.20;;;;;;;29.61;46.14;100055.66;10436324;28;20050;-74
2022/08/05 12:02:51;;;;;;;4.57;2.20;;;;;;;30.56;44.38;100062.75;10436482;28;20040;-76
2022/08/05 12:07:57;;;;;;;2.20;2.00;;;;;;;30.75;43.61;100074.19;10449076;28;20462;-78
2022/08/05 12:13:11;;;;;;;3.25;2.60;;;;;;;30.89;41.76;100071.81;10462470;28;20083;-76
2022/08/05 12:18:35;;;;;;;2.13;1.92;;;;;;;30.78;42.20;100075.59;10454190;28;20063;-74
2022/08/05 12:23:49;;;;;;;2.20;1.98;;;;;;;31.27;41.48;100077.34;10457083;28;20075;-73
2022/08/05 12:28:51;;;;;;;2.40;2.20;;;;;;;31.38;42.12;100084.56;10459060;28;20192;-74
2022/08/05 12:33:56;;;;;;;3.15;2.13;;;;;;;31.37;41.74;100089.22;10448463;28;20187;-76
2022/08/05 12:39:04;;;;;;;3.60;2.38;;;;;;;31.52;41.76;100096.72;10453603;28;20052;-73
2022/08/05 12:44:13;;;;;;;2.97;2.50;;;;;;;31.27;42.51;100099.31;10462524;28;20056;-76
2022/08/05 12:49:40;;;;;;;4.30;3.13;;;;;;;29.93;45.67;100109.00;10449986;28;20689;-76
2022/08/05 12:55:16;;;;;;;3.88;3.58;;;;;;;29.40;47.00;100116.78;10456294;28;20048;-75
2022/08/05 13:00:23;;;;;;;5.03;3.85;;;;;;;30.01;45.90;100122.31;10449625;28;20052;-75
2022/08/05 13:05:47;;;;;;;4.53;4.20;;;;;;;31.05;43.53;100136.03;10434710;28;20667;-75
2022/08/05 13:10:50;;;;;;;5.20;4.80;;;;;;;31.27;42.59;100132.31;10422675;28;20059;-76
2022/08/05 13:15:53;;;;;;;4.85;4.47;;;;;;;30.42;43.59;100138.44;10433328;28;20052;-75
2022/08/05 13:20:54;;;;;;;4.18;3.78;;;;;;;29.70;43.27;100145.72;10434418;28;20051;-75
2022/08/05 13:25:56;;;;;;;3.55;3.22;;;;;;;29.57;43.13;100150.47;10428015;28;20056;-75
2022/08/05 13:31:01;;;;;;;3.30;3.10;;;;;;;29.12;43.72;100148.66;10438575;28;20068;-74
2022/08/05 13:36:14;;;;;;;4.07;3.70;;;;;;;28.77;44.64;100163.41;10451518;28;20064;-75
2022/08/05 13:41:15;;;;;;;3.63;3.33;;;;;;;29.01;44.41;100182.47;10456949;28;20047;-73
2022/08/05 13:46:17;;;;;;;4.07;3.77;;;;;;;28.87;44.07;100180.03;10455587;28;20056;-77
2022/08/05 13:51:40;;;;;;;3.85;3.55;;;;;;;28.69;45.16;100188.44;10455566;28;20048;-74
2022/08/05 13:56:47;;;;;;;4.10;3.70;;;;;;;28.35;45.57;100180.13;10452136;28;20092;-75
2022/08/05 14:01:56;;;;;;;5.03;4.45;;;;;;;27.86;47.38;100172.22;10455856;28;20809;-76
2022/08/05 14:07:00;;;;;;;5.35;4.47;;;;;;;27.73;51.46;100137.78;10448203;28;20056;-75
2022/08/05 14:12:22;;;;;;;5.43;4.93;;;;;;;27.42;55.85;100158.94;10462230;28;20334;-73
2022/08/05 14:17:34;;;;;;;5.72;5.22;;;;;;;27.81;55.46;100178.41;10445168;28;20077;-74
2022/08/05 14:22:35;;;;;;;;;;;;;;;27.84;56.32;100185.31;10438415;28;20070;-74
2022/08/05 14:27:36;;;;;;;6.43;5.93;;;;;;;27.74;56.43;100207.78;10455353;28;19969;-74
2022/08/05 14:32:47;;;;;;;6.30;5.70;;;;;;;27.92;54.17;100211.47;10454156;28;20696;-74
2022/08/05 14:37:49;;;;;;;6.13;5.63;;;;;;;28.08;53.97;100193.53;10452330;28;20056;-76
2022/08/05 14:42:55;;;;;;;6.35;5.85;;;;;;;28.28;50.75;100198.56;10447093;28;20368;-75
2022/08/05 14:47:58;;;;;;;7.25;6.63;;;;;;;28.03;49.73;100200.53;10453767;28;20110;-75
2022/08/05 14:53:08;;;;;;;8.32;7.63;;;;;;;27.58;51.02;100205.75;10455829;28;20069;-76
2022/08/05 14:58:10;;;;;;;7.73;7.13;;;;;;;27.13;51.19;100205.22;10453471;28;20078;-75
2022/08/05 15:03:14;;;;;;;7.95;7.25;;;;;;;27.17;50.00;100202.81;10455621;28;20083;-74
2022/08/05 15:08:15;;;;;;;8.60;7.90;;;;;;;26.94;50.65;100211.81;10452674;28;20048;-74
2022/08/05 15:13:37;;;;;;;9.50;8.60;;;;;;;26.10;52.32;100221.44;10454420;28;20068;-75
2022/08/05 15:18:50;;;;;;;10.43;9.55;;;;;;;25.77;53.38;100230.78;10453189;28;20123;-73
2022/08/05 15:23:53;;;;;;;9.63;8.82;;;;;;;25.96;54.00;100238.16;10439931;28;20193;-74
2022/08/05 15:28:54;;;;;;;8.27;7.47;;;;;;;26.00;52.84;100251.16;10452973;28;20487;-78
2022/08/05 15:33:55;;;;;;;8.32;7.63;;;;;;;26.06;52.99;100246.69;10455317;28;20059;-74
2022/08/05 15:39:17;;;;;;;7.32;6.70;;;;;;;26.01;52.87;100271.91;10455503;28;20051;-74
2022/08/05 15:44:42;;;;;;;7.00;6.40;;;;;;;25.73;54.57;100266.88;10460465;28;20087;-75
2022/08/05 15:49:44;;;;;;;6.40;5.80;;;;;;;25.65;54.90;100287.09;10460699;28;20052;-76
2022/08/05 15:54:59;;;;;;;5.07;4.60;;;;;;;24.89;55.60;100294.25;10449010;28;20052;-75
2022/08/05 16:00:06;;;;;;;3.42;3.13;;;;;;;24.92;54.64;100302.00;10477448;28;20167;-77
2022/08/05 16:05:07;;;;;;;3.50;3.20;;;;;;;24.88;53.72;100298.03;10441241;28;20151;-76
2022/08/05 16:10:10;;;;;;;4.57;2.53;;;;;;;24.97;53.55;100304.06;10450577;28;20048;-75
2022/08/05 16:15:13;;;;;;;3.00;2.70;;;;;;;24.76;54.31;100295.16;10451159;28;20044;-73
2022/08/05 16:20:19;;;;;;;2.63;2.40;;;;;;;24.89;54.16;100299.69;10443353;28;20048;-75
2022/08/05 16:25:20;;;;;;;3.15;2.40;;;;;;;24.95;53.77;100315.19;10450940;28;20141;-74
2022/08/05 16:30:33;;;;;;;2.00;1.67;;;;;;;25.00;53.11;100318.06;10462690;28;20633;-75
2022/08/05 16:35:36;;;;;;;1.55;1.30;;;;;;;24.89;52.56;100316.03;10459148;28;20048;-76
2022/08/05 16:40:43;;;;;;;1.58;1.48;;;;;;;24.88;52.85;100330.72;10461500;28;20055;-76
2022/08/05 16:45:56;;;;;;;2.80;1.25;;;;;;;24.82;52.55;100331.56;10458659;28;20048;-76
2022/08/05 16:51:09;;;;;;;1.48;0.73;;;;;;;24.76;51.84;100335.16;10453388;28;20123;-77
2022/08/05 16:56:11;;;;;;;1.90;0.77;;;;;;;24.70;52.57;100345.84;10458659;28;20058;-75
2022/08/05 17:01:13;;;;;;;1.52;0.93;;;;;;;24.78;51.67;100339.31;10457921;28;20055;-76
2022/08/05 17:06:14;;;;;;;1.25;0.95;;;;;;;24.83;51.15;100355.84;10458995;28;20430;-74
2022/08/05 17:11:17;;;;;;;2.15;0.90;;;;;;;24.80;51.54;100347.25;10458178;28;20093;-76
2022/08/05 17:16:18;;;;;;;2.20;1.05;;;;;;;24.90;50.97;100352.28;10457632;28;20067;-75
2022/08/05 17:21:36;;;;;;;1.25;1.02;;;;;;;24.64;51.42;100354.88;10456410;28;20071;-74
2022/08/05 17:26:40;;;;;;;1.75;1.15;;;;;;;24.53;51.69;100366.38;10461445;28;20051;-77
2022/08/05 17:31:42;;;;;;;0.73;0.50;;;;;;;24.46;51.35;100365.56;10449296;28;20562;-76
2022/08/05 17:36:59;;;;;;;0.90;0.47;;;;;;;24.40;51.83;100378.13;10462970;28;20639;-76
2022/08/05 17:42:01;;;;;;;1.60;0.63;;;;;;;24.45;50.77;100374.75;10459755;28;20047;-78
2022/08/05 17:47:21;;;;;;;1.08;0.60;;;;;;;24.38;51.20;100382.09;10460740;28;20709;-76
2022/08/05 17:52:24;;;;;;;0.43;0.40;;;;;;;24.39;51.05;100381.06;10442297;28;20053;-77
2022/08/05 17:57:27;;;;;;;2.15;0.57;;;;;;;24.45;51.01;100391.91;10458469;28;20559;-77
2022/08/05 18:02:28;;;;;;;0.97;0.57;;;;;;;24.35;51.75;100397.81;10453109;28;20050;-75
2022/08/05 18:07:30;;;;;;;1.27;0.88;;;;;;;24.31;50.67;100412.03;10456219;28;20055;-76
2022/08/05 18:12:41;;;;;;;1.15;0.88;;;;;;;24.23;51.54;100413.09;10450946;28;20499;-73
2022/08/05 18:17:42;;;;;;;1.80;0.88;;;;;;;24.17;51.64;100411.22;10451744;28;20071;-74
2022/08/05 18:23:04;;;;;;;1.35;0.60;;;;;;;24.06;50.58;100431.69;10443236;28;20052;-73
2022/08/05 18:28:16;;;;;;;2.00;0.80;;;;;;;24.05;50.79;100440.03;10450157;28;20048;-73
2022/08/05 18:33:18;;;;;;;1.35;0.70;;;;;;;23.99;49.27;100445.28;10452195;28;20075;-77
2022/08/05 18:38:24;;;;;;;2.00;0.60;;;;;;;23.94;47.32;100452.38;10433933;28;20713;-74
2022/08/05 18:43:26;;;;;;;1.73;0.68;;;;;;;23.75;45.89;100456.69;10433003;28;20052;-73
2022/08/05 18:48:32;;;;;;;2.20;1.00;;;;;;;23.55;45.94;100462.06;10448644;28;20056;-74
2022/08/05 18:53:33;;;;;;;1.42;0.38;;;;;;;23.37;46.36;100462.63;10449049;28;20143;-74
2022/08/05 18:58:46;;;;;;;2.53;0.40;;;;;;;23.25;47.52;100482.22;10432645;28;20040;-73
2022/08/05 19:03:51;;;;;;;1.48;0.40;;;;;;;23.22;47.27;100492.66;10445005;28;20071;-73
2022/08/05 19:08:56;;;;;;;1.42;0.60;;;;;;;23.02;47.76;100497.94;10447168;28;20048;-71
2022/08/05 19:13:58;;;;;;;2.55;0.50;;;;;;;23.01;48.00;100499.81;10446760;28;20511;-73
2022/08/05 19:19:05;;;;;;;2.53;0.57;;;;;;;22.98;48.14;100516.50;10454969;28;20120;-73
2022/08/05 19:24:09;;;;;;;1.88;1.15;;;;;;;22.95;49.30;100533.16;10454828;28;20095;-73
2022/08/05 19:29:14;;;;;;;3.85;0.90;;;;;;;22.89;49.52;100539.41;10453657;28;20060;-72
2022/08/05 19:34:19;;;;;;;1.05;0.60;;;;;;;22.70;49.20;100547.19;10453511;28;20044;-73
2022/08/05 19:39:22;;;;;;;1.63;0.60;;;;;;;22.68;50.01;100562.81;10452319;28;21135;-71
2022/08/05 19:44:28;;;;;;;2.67;0.75;;;;;;;22.68;50.19;100581.81;10456170;28;20459;-73
2022/08/05 19:49:30;;;;;;;1.95;0.63;;;;;;;22.59;49.90;100589.25;10440686;28;20056;-73
2022/08/05 19:54:33;;;;;;;1.67;0.80;;;;;;;22.57;49.95;100590.47;10445695;28;20055;-72
2022/08/05 19:59:36;;;;;;;2.70;0.93;;;;;;;22.53;49.51;100595.47;10455078;28;20052;-73
2022/08/05 20:04:58;;;;;;;2.58;0.82;;;;;;;22.52;49.68;100592.91;10445826;28;20063;-73
2022/08/05 20:10:01;;;;;;;1.75;0.90;;;;;;;22.51;49.84;100608.38;10452186;28;20063;-72
2022/08/05 20:15:05;;;;;;;1.40;0.90;;;;;;;22.28;50.32;100613.09;10453589;28;20051;-71
2022/08/05 20:20:09;;;;;;;3.22;0.90;;;;;;;22.33;50.06;100619.66;10438710;28;20059;-72
2022/08/05 20:25:11;;;;;;;1.53;0.80;;;;;;;22.32;49.42;100626.09;10462012;28;20490;-72
2022/08/05 20:30:12;;;;;;;6.88;1.15;;;;;;;22.26;49.34;100632.25;10451334;28;20048;-71
2022/08/05 20:35:18;;;;;;;1.98;0.65;;;;;;;22.32;48.68;100645.09;10448168;28;20237;-71
2022/08/05 20:40:20;;;;;;;1.65;0.95;;;;;;;22.26;49.08;100653.94;10459223;28;20072;-71
2022/08/05 20:45:21;;;;;;;2.83;0.77;;;;;;;22.13;48.13;100657.38;10445636;28;20056;-69
2022/08/05 20:50:43;;;;;;;1.58;0.90;;;;;;;22.03;47.97;100664.94;10467383;28;20059;-72
2022/08/05 20:55:47;;;;;;;2.03;0.52;;;;;;;22.02;48.18;100664.13;10468861;28;20075;-72
2022/08/05 21:01:08;;;;;;;2.50;0.90;;;;;;;22.00;47.90;100676.16;10466663;28;20048;-71
2022/08/05 21:06:10;;;;;;;2.17;0.90;;;;;;;22.02;48.23;100665.97;10455713;28;20044;-72
2022/08/05 21:11:28;;;;;;;2.28;0.57;;;;;;;21.96;48.13;100669.44;10469914;28;20052;-71
2022/08/05 21:16:50;;;;;;;1.73;0.70;;;;;;;21.94;48.04;100676.91;10432695;28;20418;-74
2022/08/05 21:21:52;;;;;;;1.70;0.63;;;;;;;21.87;48.26;100683.09;10471740;28;20060;-75
2022/08/05 21:26:53;;;;;;;2.35;0.80;;;;;;;21.81;48.75;100691.97;10469001;28;20673;-73
2022/08/05 21:32:01;;;;;;;0.77;0.50;;;;;;;21.81;49.54;100700.09;10444364;28;20123;-73
2022/08/05 21:37:03;;;;;;;2.72;1.17;;;;;;;21.74;48.58;100696.44;10456058;28;20040;-71
2022/08/05 21:42:07;;;;;;;2.15;0.73;;;;;;;21.64;49.46;100679.63;10460900;28;20614;-72
2022/08/05 21:47:28;;;;;;;1.95;0.70;;;;;;;21.63;49.71;100686.91;10468553;28;20075;-74
2022/08/05 21:52:49;;;;;;;2.75;0.88;;;;;;;21.62;50.26;100681.66;10463561;28;20055;-73
2022/08/05 21:57:53;;;;;;;;;;;;;;;21.60;51.28;100681.00;10477003;28;20048;-73
2022/08/05 22:02:56;;;;;;;1.95;1.10;;;;;;;21.54;50.07;100693.44;10461086;28;19928;-74
2022/08/05 22:07:59;;;;;;;2.20;1.23;;;;;;;21.51;50.13;100716.31;10457379;28;20048;-73
2022/08/05 22:13:05;;;;;;;1.55;0.90;;;;;;;21.51;50.11;100721.75;10455624;28;20514;-72
2022/08/05 22:18:27;;;;;;;1.92;1.10;;;;;;;21.49;51.46;100718.31;10442040;28;20288;-73
2022/08/05 22:29:09;;;;;;;2.75;0.60;;;;;;;21.33;51.14;100734.72;10455381;28;20284;-72
2022/08/05 22:34:14;;;;;;;4.22;1.23;;;;;;;21.27;50.68;100736.31;10436710;28;20053;-72
2022/08/05 22:39:30;;;;;;;1.77;1.02;;;;;;;21.18;50.62;100735.53;10468530;28;20048;-72
2022/08/05 22:44:34;;;;;;;3.45;0.90;;;;;;;21.13;51.78;100740.63;10468645;28;20044;-71
2022/08/05 22:49:35;;;;;;;3.45;1.38;;;;;;;21.18;51.72;100737.38;10450024;28;20737;-73
2022/08/05 22:54:57;;;;;;;1.50;1.00;;;;;;;21.10;51.27;100740.16;10465548;28;20048;-71
2022/08/05 22:59:58;;;;;;;2.35;0.90;;;;;;;20.90;52.69;100750.63;10466854;28;20082;-72
2022/08/05 23:04:59;;;;;;;2.35;0.90;;;;;;;20.78;51.99;100759.16;10465147;28;20048;-72
2022/08/05 23:10:05;;;;;;;1.73;0.93;;;;;;;20.70;52.23;100774.56;10464707;28;20055;-74
2022/08/05 23:15:08;;;;;;;3.88;1.02;;;;;;;20.69;51.17;100771.03;10469959;28;20044;-72
2022/08/05 23:20:12;;;;;;;0.93;0.50;;;;;;;20.65;50.40;100769.66;10472241;28;20102;-72
2022/08/05 23:25:18;;;;;;;2.72;0.70;;;;;;;20.61;50.21;100769.19;10469543;28;20056;-74
2022/08/05 23:30:39;;;;;;;1.40;0.50;;;;;;;20.54;49.11;100784.44;10464613;28;20420;-71
2022/08/05 23:35:44;;;;;;;1.30;0.50;;;;;;;20.46;48.23;100793.44;10467317;28;20048;-74
2022/08/05 23:40:45;;;;;;;1.50;0.43;;;;;;;20.44;47.92;100800.84;10464778;28;20773;-72
2022/08/05 23:45:50;;;;;;;0.65;0.35;;;;;;;20.40;47.78;100798.66;10465147;28;20059;-72
2022/08/05 23:50:52;;;;;;;3.10;0.80;;;;;;;20.45;49.21;100807.13;10454123;28;20135;-72
2022/08/05 23:55:53;;;;;;;1.60;0.90;;;;;;;20.44;48.28;100806.25;10471619;28;20090;-73
